createdAt,value
2022-11-28T00:00:26.171Z,8.20
2022-11-28T00:03:12.441Z,9.03
2022-11-28T00:06:04.409Z,8.03
2022-11-28T00:08:52.232Z,8.00
2022-11-28T00:11:40.859Z,8.83
2022-11-28T00:14:27.010Z,9.00
2022-11-28T00:17:13.301Z,7.97
2022-11-28T00:19:59.878Z,8.23
2022-11-28T00:22:46.460Z,8.93
2022-11-28T00:25:34.100Z,9.07
2022-11-28T00:28:20.590Z,9.17
2022-11-28T00:31:07.346Z,8.93
2022-11-28T00:33:54.420Z,8.80
2022-11-28T00:36:40.612Z,9.60
2022-11-28T00:39:27.214Z,8.87
2022-11-28T00:42:16.514Z,9.70
2022-11-28T00:45:02.859Z,9.93
2022-11-28T00:47:49.187Z,9.80
2022-11-28T00:50:35.422Z,8.93
2022-11-28T00:53:22.106Z,9.93
2022-11-28T00:56:09.673Z,9.50
2022-11-28T00:58:57.847Z,9.90
2022-11-28T01:01:45.057Z,10.13
2022-11-28T01:04:31.371Z,9.80
2022-11-28T01:07:18.108Z,9.73
2022-11-28T01:10:04.819Z,10.17
2022-11-28T01:12:51.312Z,10.07
2022-11-28T01:15:44.033Z,9.40
2022-11-28T01:18:30.379Z,9.03
2022-11-28T01:21:16.993Z,9.20
2022-11-28T01:24:03.452Z,9.83
2022-11-28T01:26:49.622Z,9.73
2022-11-28T01:29:36.135Z,9.33
2022-11-28T01:32:23.711Z,9.03
2022-11-28T01:35:10.657Z,9.37
2022-11-28T01:37:56.967Z,9.10
2022-11-28T01:40:46.626Z,9.03
2022-11-28T01:43:33.351Z,9.20
2022-11-28T01:46:19.846Z,10.07
2022-11-28T01:49:12.643Z,9.07
2022-11-28T01:52:03.962Z,9.40
2022-11-28T01:54:54.019Z,9.60
2022-11-28T01:57:41.101Z,9.03
2022-11-28T02:00:27.427Z,9.50
2022-11-28T02:03:18.494Z,8.77
2022-11-28T02:06:06.753Z,9.47
2022-11-28T02:08:54.038Z,9.73
2022-11-28T02:11:54.565Z,9.77
2022-11-28T02:15:03.967Z,10.07
2022-11-28T02:18:04.197Z,9.73
2022-11-28T02:21:11.228Z,10.13
2022-11-28T02:24:40.889Z,9.50
2022-11-28T02:27:38.839Z,9.70
2022-11-28T02:30:31.068Z,8.77
2022-11-28T02:33:26.109Z,9.07
2022-11-28T02:36:16.775Z,8.77
2022-11-28T02:39:12.291Z,9.23
2022-11-28T02:42:07.000Z,9.37
2022-11-28T02:44:59.923Z,9.33
2022-11-28T02:47:51.166Z,10.03
2022-11-28T02:50:43.025Z,9.23
2022-11-28T02:53:33.785Z,9.80
2022-11-28T02:56:20.568Z,9.53
2022-11-28T02:59:32.089Z,9.93
2022-11-28T03:02:20.771Z,9.03
2022-11-28T03:05:12.378Z,9.97
2022-11-28T03:08:11.707Z,8.80
2022-11-28T03:11:04.263Z,9.57
2022-11-28T03:13:58.367Z,9.87
2022-11-28T03:16:50.121Z,9.00
2022-11-28T03:19:40.884Z,9.73
2022-11-28T03:22:31.443Z,9.23
2022-11-28T03:25:29.568Z,8.50
2022-11-28T03:28:22.490Z,8.27
2022-11-28T03:31:13.902Z,8.20
2022-11-28T03:34:02.003Z,9.30
2022-11-28T03:36:53.350Z,8.70
2022-11-28T03:39:42.559Z,8.70
2022-11-28T03:42:33.603Z,8.50
2022-11-28T03:45:23.224Z,8.93
2022-11-28T03:48:13.850Z,9.83
2022-11-28T03:51:07.060Z,8.57
2022-11-28T03:54:00.635Z,9.30
2022-11-28T03:56:52.951Z,8.67
2022-11-28T03:59:43.802Z,8.50
2022-11-28T04:02:35.178Z,8.00
2022-11-28T04:05:26.671Z,8.67
2022-11-28T04:08:16.583Z,7.83
2022-11-28T04:11:08.549Z,8.90
2022-11-28T04:13:59.283Z,8.70
2022-11-28T04:16:54.057Z,8.67
2022-11-28T04:19:44.726Z,8.90
2022-11-28T04:22:34.579Z,8.23
2022-11-28T04:25:24.672Z,8.57
2022-11-28T04:28:14.505Z,7.53
2022-11-28T04:31:03.759Z,7.67
2022-11-28T04:33:55.819Z,7.40
2022-11-28T04:36:44.711Z,7.77
2022-11-28T04:39:34.507Z,8.00
2022-11-28T04:42:23.311Z,8.23
2022-11-28T04:45:14.890Z,8.40
2022-11-28T04:48:02.696Z,8.47
2022-11-28T04:50:59.005Z,8.20
2022-11-28T04:53:50.212Z,8.00
2022-11-28T04:56:42.037Z,7.60
2022-11-28T04:59:31.224Z,8.30
2022-11-28T05:02:20.546Z,8.30
2022-11-28T05:05:10.995Z,8.40
2022-11-28T05:07:58.977Z,7.70
2022-11-28T05:10:45.639Z,8.33
2022-11-28T05:13:31.946Z,8.93
2022-11-28T05:16:18.688Z,8.43
2022-11-28T05:19:05.244Z,9.90
2022-11-28T05:21:53.098Z,8.10
2022-11-28T05:24:41.050Z,8.37
2022-11-28T05:27:27.222Z,8.80
2022-11-28T05:30:14.928Z,8.93
2022-11-28T05:33:02.104Z,8.17
2022-11-28T05:35:48.620Z,8.00
2022-11-28T05:38:35.572Z,7.97
2022-11-28T05:41:25.250Z,8.27
2022-11-28T05:44:11.952Z,8.47
2022-11-28T05:46:58.131Z,8.80
2022-11-28T05:49:45.231Z,8.80
2022-11-28T05:52:32.337Z,8.67
2022-11-28T05:55:19.055Z,9.33
2022-11-28T05:58:07.604Z,9.23
2022-11-28T06:00:53.863Z,9.70
2022-11-28T06:03:40.392Z,10.57
2022-11-28T06:06:31.639Z,9.37
2022-11-28T06:09:20.954Z,8.97
2022-11-28T06:12:10.808Z,9.20
2022-11-28T06:14:58.396Z,9.10
2022-11-28T06:17:44.591Z,9.13
2022-11-28T06:20:30.896Z,9.33
2022-11-28T06:23:17.087Z,8.63
2022-11-28T06:26:06.627Z,8.60
2022-11-28T06:28:53.373Z,8.43
2022-11-28T06:31:41.366Z,9.20
2022-11-28T06:34:28.215Z,9.73
2022-11-28T06:37:14.518Z,9.07
2022-11-28T06:40:00.672Z,8.73
2022-11-28T06:42:50.332Z,8.37
2022-11-28T06:45:37.137Z,8.63
2022-11-28T06:48:25.645Z,7.90
2022-11-28T06:51:12.498Z,8.60
2022-11-28T06:53:59.154Z,8.23
2022-11-28T06:56:45.572Z,8.30
2022-11-28T06:59:32.294Z,8.03
2022-11-28T07:02:18.983Z,7.23
2022-11-28T07:05:07.983Z,7.33
2022-11-28T07:07:54.760Z,7.53
2022-11-28T07:10:41.419Z,7.43
2022-11-28T07:13:27.667Z,7.97
2022-11-28T07:16:16.694Z,7.80
2022-11-28T07:19:03.583Z,7.37
2022-11-28T07:21:51.833Z,8.50
2022-11-28T07:24:38.349Z,7.90
2022-11-28T07:27:24.962Z,7.93
2022-11-28T07:30:11.979Z,7.67
2022-11-28T07:32:58.475Z,6.90
2022-11-28T07:35:44.770Z,6.93
2022-11-28T07:38:32.668Z,5.93
2022-11-28T07:41:24.977Z,6.67
2022-11-28T07:44:13.027Z,6.60
2022-11-28T07:46:59.692Z,5.77
2022-11-28T07:49:46.672Z,6.40
2022-11-28T07:52:33.175Z,6.40
2022-11-28T07:55:20.911Z,6.03
2022-11-28T07:58:07.270Z,6.47
2022-11-28T08:00:53.806Z,6.47
2022-11-28T08:03:40.889Z,6.40
2022-11-28T08:06:29.646Z,6.77
2022-11-28T08:09:16.000Z,6.53
2022-11-28T08:14:55.067Z,6.80
2022-11-28T08:17:41.516Z,6.77
2022-11-28T08:20:27.786Z,6.93
2022-11-28T08:23:14.349Z,7.40
2022-11-28T08:26:01.670Z,7.17
2022-11-28T08:28:50.636Z,7.33
2022-11-28T08:31:38.306Z,7.17
2022-11-28T08:34:24.575Z,6.40
2022-11-28T08:37:11.175Z,7.03
2022-11-28T08:39:57.711Z,7.43
2022-11-28T08:42:44.035Z,6.77
2022-11-28T08:45:32.475Z,7.30
2022-11-28T08:48:19.229Z,7.83
2022-11-28T08:51:06.453Z,7.97
2022-11-28T08:53:59.161Z,7.80
2022-11-28T08:56:48.186Z,9.23
2022-11-28T08:59:34.544Z,6.53
2022-11-28T09:02:25.965Z,7.00
2022-11-28T09:05:12.675Z,7.00
2022-11-28T09:07:59.442Z,7.20
2022-11-28T09:10:47.025Z,7.43
2022-11-28T09:13:33.634Z,8.00
2022-11-28T09:16:20.392Z,7.57
2022-11-28T09:19:09.281Z,8.37
2022-11-28T09:21:57.897Z,7.83
2022-11-28T09:24:44.345Z,7.93
2022-11-28T09:27:30.694Z,7.80
2022-11-28T09:30:18.031Z,7.40
2022-11-28T09:33:04.752Z,7.23
2022-11-28T09:35:52.655Z,8.07
2022-11-28T09:38:39.863Z,8.90
2022-11-28T09:41:39.698Z,7.63
2022-11-28T09:44:32.087Z,7.57
2022-11-28T09:47:23.044Z,7.37
2022-11-28T09:50:16.608Z,7.67
2022-11-28T09:53:14.688Z,6.67
2022-11-28T09:56:07.411Z,7.90
2022-11-28T09:58:58.834Z,8.47
2022-11-28T10:01:50.838Z,7.60
2022-11-28T10:04:43.463Z,8.80
2022-11-28T10:07:44.261Z,8.20
2022-11-28T10:10:42.221Z,8.30
2022-11-28T10:14:06.152Z,8.13
2022-11-28T10:16:52.838Z,8.50
2022-11-28T10:20:00.647Z,8.03
2022-11-28T10:22:52.735Z,8.17
2022-11-28T10:25:43.465Z,8.40
2022-11-28T10:28:33.989Z,8.53
2022-11-28T10:31:27.628Z,7.53
2022-11-28T10:34:20.517Z,9.00
2022-11-28T10:37:11.671Z,8.33
2022-11-28T10:40:10.719Z,9.17
2022-11-28T10:43:02.412Z,9.37
2022-11-28T10:45:55.266Z,11.50
2022-11-28T10:48:46.664Z,8.33
2022-11-28T10:51:39.260Z,9.50
2022-11-28T10:54:55.487Z,8.63
2022-11-28T10:57:47.332Z,8.50
2022-11-28T11:00:36.317Z,9.57
2022-11-28T11:03:28.062Z,8.03
2022-11-28T11:06:14.772Z,8.87
2022-11-28T11:09:01.141Z,8.00
2022-11-28T11:11:55.064Z,7.87
2022-11-28T11:14:41.650Z,8.40
2022-11-28T11:17:36.113Z,8.13
2022-11-28T11:20:33.438Z,8.63
2022-11-28T11:23:21.770Z,8.33
2022-11-28T11:26:10.363Z,8.17
2022-11-28T11:28:57.598Z,7.63
2022-11-28T11:31:45.375Z,7.67
2022-11-28T11:34:38.557Z,6.97
2022-11-28T11:37:33.922Z,7.33
2022-11-28T11:40:26.879Z,6.80
2022-11-28T11:43:36.220Z,7.30
2022-11-28T11:46:22.855Z,6.00
2022-11-28T11:49:29.367Z,6.47
2022-11-28T11:52:22.040Z,6.13
2022-11-28T11:55:14.714Z,6.27
2022-11-28T11:58:05.898Z,6.60
2022-11-28T12:00:55.772Z,5.67
2022-11-28T12:03:54.333Z,6.40
2022-11-28T12:06:48.012Z,6.60
2022-11-28T12:09:42.920Z,6.77
2022-11-28T12:12:30.782Z,5.80
2022-11-28T12:15:37.070Z,6.50
2022-11-28T12:18:32.006Z,5.67
2022-11-28T12:21:27.727Z,6.10
2022-11-28T12:24:17.563Z,5.80
2022-11-28T12:27:14.113Z,5.40
2022-11-28T12:30:21.322Z,5.90
2022-11-28T12:33:25.608Z,5.50
2022-11-28T12:36:23.352Z,5.93
2022-11-28T12:39:19.326Z,6.17
2022-11-28T12:42:30.531Z,6.30
2022-11-28T12:45:34.242Z,6.73
2022-11-28T12:48:38.000Z,6.43
2022-11-28T12:51:37.128Z,5.93
2022-11-28T12:54:45.304Z,6.10
2022-11-28T12:57:39.461Z,6.93
2022-11-28T13:00:28.014Z,6.40
2022-11-28T13:03:28.791Z,6.53
2022-11-28T13:06:28.053Z,5.33
2022-11-28T13:09:29.136Z,6.30
2022-11-28T13:12:21.272Z,6.00
2022-11-28T13:15:13.790Z,5.87
2022-11-28T13:18:05.544Z,5.63
2022-11-28T13:20:56.839Z,6.20
2022-11-28T13:23:51.804Z,5.93
2022-11-28T13:26:54.024Z,6.23
2022-11-28T13:29:48.163Z,5.70
2022-11-28T13:32:40.740Z,5.90
2022-11-28T13:35:29.126Z,5.60
2022-11-28T13:38:44.137Z,5.63
2022-11-28T13:42:06.373Z,5.63
2022-11-28T13:44:52.010Z,6.17
2022-11-28T13:47:39.935Z,6.27
2022-11-28T13:50:41.246Z,6.30
2022-11-28T13:53:27.886Z,6.03
2022-11-28T13:56:24.598Z,6.33
2022-11-28T13:59:18.071Z,6.20
2022-11-28T14:02:16.234Z,6.50
2022-11-28T14:05:06.736Z,6.17
2022-11-28T14:07:56.086Z,8.40
2022-11-28T14:11:05.642Z,5.67
2022-11-28T14:14:05.451Z,6.80
2022-11-28T14:17:05.312Z,5.97
2022-11-28T14:20:10.362Z,6.53
2022-11-28T14:23:14.449Z,5.83
2022-11-28T14:26:01.092Z,6.70
2022-11-28T14:28:47.741Z,6.47
2022-11-28T14:31:37.999Z,6.30
2022-11-28T14:34:40.759Z,6.97
2022-11-28T14:37:59.462Z,6.37
2022-11-28T14:41:11.501Z,6.20
2022-11-28T14:44:39.976Z,7.10
2022-11-28T14:47:31.860Z,7.03
2022-11-28T14:50:59.372Z,6.50
2022-11-28T14:53:50.628Z,7.10
2022-11-28T14:56:37.072Z,7.20
2022-11-28T14:59:29.520Z,7.17
2022-11-28T15:02:42.949Z,7.57
2022-11-28T15:05:42.271Z,6.93
2022-11-28T15:08:56.856Z,7.90
2022-11-28T15:11:59.495Z,7.07
2022-11-28T15:14:52.423Z,7.43
2022-11-28T15:17:40.591Z,7.93
2022-11-28T15:20:30.485Z,7.70
2022-11-28T15:23:24.413Z,8.10
2022-11-28T15:26:21.322Z,7.83
2022-11-28T15:29:11.899Z,7.70
2022-11-28T15:31:59.463Z,7.67
2022-11-28T15:34:51.629Z,7.53
2022-11-28T15:37:37.936Z,8.47
2022-11-28T15:40:27.526Z,7.57
2022-11-28T15:43:15.734Z,7.10
2022-11-28T15:46:02.884Z,8.10
2022-11-28T15:48:50.631Z,7.43
2022-11-28T15:51:37.100Z,7.77
2022-11-28T15:54:36.117Z,8.10
2022-11-28T15:57:25.108Z,8.37
2022-11-28T16:00:16.772Z,7.63
2022-11-28T16:03:03.416Z,7.63
2022-11-28T16:05:52.199Z,8.07
2022-11-28T16:08:41.808Z,7.73
2022-11-28T16:11:30.695Z,8.53
2022-11-28T16:14:22.271Z,7.43
2022-11-28T16:17:19.199Z,8.07
2022-11-28T16:20:07.187Z,7.87
2022-11-28T16:23:02.458Z,8.43
2022-11-28T16:26:00.707Z,8.13
2022-11-28T16:28:59.523Z,8.50
2022-11-28T16:31:47.772Z,8.07
2022-11-28T16:34:49.869Z,10.10
2022-11-28T16:37:36.324Z,8.63
2022-11-28T16:40:24.778Z,8.80
2022-11-28T16:43:22.079Z,7.97
2022-11-28T16:46:18.209Z,8.30
2022-11-28T16:49:07.048Z,8.13
2022-11-28T16:52:29.426Z,8.63
2022-11-28T16:55:46.173Z,8.97
2022-11-28T16:58:32.445Z,8.83
2022-11-28T17:01:18.998Z,8.43
2022-11-28T17:04:06.150Z,8.43
2022-11-28T17:06:55.103Z,8.60
2022-11-28T17:09:42.159Z,9.27
2022-11-28T17:12:30.855Z,8.50
2022-11-28T17:15:20.040Z,8.27
2022-11-28T17:18:06.563Z,9.30
2022-11-28T17:20:52.938Z,9.05
2022-11-28T17:23:41.902Z,9.85
2022-11-28T17:26:28.090Z,8.83
2022-11-28T17:29:16.269Z,9.87
2022-11-28T17:32:02.958Z,9.10
2022-11-28T17:34:49.484Z,8.67
2022-11-28T17:37:35.690Z,9.43
2022-11-28T17:40:36.617Z,9.43
2022-11-28T17:43:23.003Z,9.83
2022-11-28T17:46:09.584Z,10.23
2022-11-28T17:48:57.600Z,9.90
2022-11-28T17:51:44.322Z,9.37
2022-11-28T17:54:30.661Z,9.57
2022-11-28T17:57:18.287Z,10.27
2022-11-28T18:00:06.448Z,9.80
2022-11-28T18:02:52.620Z,9.37
2022-11-28T18:05:40.351Z,9.13
2022-11-28T18:08:26.864Z,8.43
2022-11-28T18:11:14.791Z,9.40
2022-11-28T18:14:02.650Z,9.73
2022-11-28T18:16:49.307Z,9.00
2022-11-28T18:19:35.700Z,9.90
2022-11-28T18:22:22.319Z,9.63
2022-11-28T18:25:10.278Z,9.97
2022-11-28T18:27:56.725Z,10.43
2022-11-28T18:30:45.748Z,9.33
2022-11-28T18:33:31.956Z,9.73
2022-11-28T18:36:20.999Z,8.90
2022-11-28T18:39:09.766Z,10.30
2022-11-28T18:41:56.350Z,10.37
2022-11-28T18:44:42.736Z,10.67
2022-11-28T18:47:30.524Z,9.90
2022-11-28T18:50:16.823Z,9.50
2022-11-28T18:53:03.516Z,9.63
2022-11-28T18:55:49.713Z,10.43
2022-11-28T18:58:36.785Z,10.47
2022-11-28T19:01:28.266Z,10.03
2022-11-28T19:04:16.824Z,10.33
2022-11-28T19:07:03.985Z,10.23
2022-11-28T19:09:50.424Z,10.23
2022-11-28T19:12:38.137Z,9.70
2022-11-28T19:15:24.460Z,9.97
2022-11-28T19:18:10.691Z,12.23
2022-11-28T19:20:58.803Z,10.97
2022-11-28T19:23:47.033Z,10.63
2022-11-28T19:26:34.264Z,10.23
2022-11-28T19:29:20.613Z,11.30
2022-11-28T19:32:06.957Z,12.73
2022-11-28T19:34:54.017Z,12.47
2022-11-28T19:37:42.155Z,12.07
2022-11-28T19:40:28.765Z,11.40
2022-11-28T19:43:15.047Z,13.10
2022-11-28T19:46:01.400Z,11.50
2022-11-28T19:48:51.123Z,11.40
2022-11-28T19:51:37.354Z,11.40
2022-11-28T19:54:25.733Z,11.10
2022-11-28T19:57:12.407Z,11.07
2022-11-28T19:59:58.770Z,11.73
2022-11-28T20:02:45.084Z,11.87
2022-11-28T20:05:32.314Z,10.90
2022-11-28T20:08:18.564Z,12.03
2022-11-28T20:11:11.820Z,10.97
2022-11-28T20:13:59.617Z,11.73
2022-11-28T20:16:46.957Z,10.50
2022-11-28T20:19:33.266Z,11.07
2022-11-28T20:22:21.816Z,11.70
2022-11-28T20:25:09.104Z,12.33
2022-11-28T20:27:56.712Z,11.30
2022-11-28T20:30:43.007Z,11.40
2022-11-28T20:33:29.983Z,10.47
2022-11-28T20:36:18.931Z,10.90
2022-11-28T20:39:05.881Z,11.40
2022-11-28T20:41:52.207Z,11.03
2022-11-28T20:44:39.760Z,10.50
2022-11-28T20:47:25.918Z,11.63
2022-11-28T20:50:12.292Z,10.83
2022-11-28T20:52:58.500Z,11.53
2022-11-28T20:55:45.117Z,11.20
2022-11-28T20:58:32.549Z,11.17
2022-11-28T21:01:22.323Z,10.63
2022-11-28T21:04:09.782Z,11.63
2022-11-28T21:06:56.140Z,12.00
2022-11-28T21:09:42.735Z,12.00
2022-11-28T21:12:29.618Z,11.73
2022-11-28T21:15:15.949Z,12.90
2022-11-28T21:18:05.144Z,11.63
2022-11-28T21:20:52.812Z,12.57
2022-11-28T21:23:39.582Z,12.40
2022-11-28T21:26:30.254Z,11.97
2022-11-28T21:29:17.486Z,12.30
2022-11-28T21:32:03.926Z,11.40
2022-11-28T21:34:51.592Z,12.07
2022-11-28T21:37:37.949Z,12.63
2022-11-28T21:40:24.788Z,12.60
2022-11-28T21:43:10.955Z,21.40
2022-11-28T21:46:03.082Z,13.27
2022-11-28T21:48:49.467Z,13.90
2022-11-28T21:51:37.191Z,12.07
2022-11-28T21:54:23.675Z,13.37
2022-11-28T21:57:09.946Z,12.13
2022-11-28T21:59:56.331Z,13.17
2022-11-28T22:02:46.200Z,13.07
2022-11-28T22:05:32.839Z,12.87
2022-11-28T22:08:20.759Z,13.33
2022-11-28T22:11:10.980Z,13.77
2022-11-28T22:13:57.461Z,15.87
2022-11-28T22:16:44.005Z,13.10
2022-11-28T22:19:30.706Z,13.17
2022-11-28T22:22:17.037Z,12.43
2022-11-28T22:25:05.607Z,12.27
2022-11-28T22:27:51.873Z,11.60
2022-11-28T22:30:39.673Z,12.03
2022-11-28T22:33:26.090Z,11.87
2022-11-28T22:36:14.278Z,12.07
2022-11-28T22:39:01.016Z,12.27
2022-11-28T22:41:48.670Z,11.63
2022-11-28T22:44:35.090Z,11.80
2022-11-28T22:47:21.555Z,11.70
2022-11-28T22:50:08.969Z,11.33
2022-11-28T22:52:55.595Z,11.10
2022-11-28T22:55:42.088Z,11.87
2022-11-28T22:58:29.692Z,10.43
2022-11-28T23:01:18.207Z,10.87
2022-11-28T23:04:05.127Z,10.77
2022-11-28T23:06:51.570Z,10.40
2022-11-28T23:09:37.741Z,10.90
2022-11-28T23:12:24.151Z,10.27
2022-11-28T23:15:11.921Z,10.87
2022-11-28T23:17:58.441Z,11.43
2022-11-28T23:20:44.792Z,11.23
2022-11-28T23:23:31.867Z,11.73
2022-11-28T23:26:20.146Z,10.63
2022-11-28T23:29:06.962Z,10.87
2022-11-28T23:31:54.772Z,10.87
2022-11-28T23:34:41.753Z,11.57
2022-11-28T23:37:28.128Z,10.47
2022-11-28T23:40:14.680Z,10.40
2022-11-28T23:43:01.231Z,10.87
2022-11-28T23:45:47.487Z,10.93
2022-11-28T23:48:35.891Z,9.83
2022-11-28T23:51:23.896Z,9.53
2022-11-28T23:54:12.048Z,10.43
2022-11-28T23:56:58.316Z,10.87
2022-11-28T23:59:44.799Z,10.30
